Current Weather

El Borma

El Borma, Tunisia (DTTR)

Report from: Saturday, June 22, 2024 11:00 AM CET
Current time: Saturday, June 22, 2024 11:17 AM CET

Nearby weather – Weather history – Daily summaries
Weather forecast

Temperature35.0°C (95.0°F)
Heat index34.0°C (93.3°F)
Dew point13.0°C (55.4°F)
Winds 13 kts (6.7 m/s, 15 mph) East-Northeast (70°)
Clouds Sky clear
Altimeter29.97 in.Hg (1015 mB)
Relative humidity27 %
Density altitude2,421 ft. (738 m)
Remarks Ceiling and visibility OK
Flight conditions Visual Meteorological Conditions
Raw dataDTTR 221000Z 07013KT CAVOK 35/13 Q1015
An error has occurred. This application may no longer respond until reloaded. Reload 🗙